createdAt,value
2018-05-08T00:00:20.172Z,61.80
2018-05-08T00:02:46.941Z,62.00
2018-05-08T00:05:12.961Z,62.00
2018-05-08T00:07:38.986Z,62.10
2018-05-08T00:10:05.786Z,62.60
2018-05-08T00:12:31.814Z,62.60
2018-05-08T00:14:57.842Z,62.90
2018-05-08T00:17:23.872Z,63.10
2018-05-08T00:19:49.880Z,62.70
2018-05-08T00:22:16.643Z,62.90
2018-05-08T00:24:42.665Z,62.90
2018-05-08T00:27:09.439Z,63.50
2018-05-08T00:29:35.470Z,63.50
2018-05-08T00:32:02.258Z,63.90
2018-05-08T00:34:28.318Z,63.90
2018-05-08T00:36:54.342Z,63.70
2018-05-08T00:39:20.371Z,64.00
2018-05-08T00:41:46.390Z,64.20
2018-05-08T00:44:12.415Z,64.00
2018-05-08T00:46:38.437Z,64.10
2018-05-08T00:49:05.207Z,64.30
2018-05-08T00:51:31.216Z,64.40
2018-05-08T00:54:04.963Z,64.40
2018-05-08T00:56:30.980Z,64.40
2018-05-08T00:58:57.747Z,64.30
2018-05-08T01:01:23.779Z,64.30
2018-05-08T01:03:49.822Z,64.40
2018-05-08T01:06:15.925Z,64.50
2018-05-08T01:08:42.689Z,65.70
2018-05-08T01:11:09.452Z,65.10
2018-05-08T01:13:36.271Z,65.30
2018-05-08T01:16:02.325Z,65.30
2018-05-08T01:18:29.063Z,65.80
2018-05-08T01:20:55.057Z,65.70
2018-05-08T01:23:21.066Z,66.10
2018-05-08T01:25:47.065Z,66.40
2018-05-08T01:28:13.065Z,66.80
2018-05-08T01:30:39.070Z,66.80
2018-05-08T01:33:05.862Z,67.60
2018-05-08T01:35:31.872Z,67.50
2018-05-08T01:37:57.895Z,67.70
2018-05-08T01:40:24.646Z,68.30
2018-05-08T01:42:51.388Z,68.40
2018-05-08T01:45:18.125Z,68.80
2018-05-08T01:47:44.127Z,68.80
2018-05-08T01:50:10.136Z,69.50
2018-05-08T01:52:36.139Z,69.50
2018-05-08T01:55:02.153Z,70.10
2018-05-08T01:57:28.173Z,70.10
2018-05-08T01:59:54.205Z,70.40
2018-05-08T02:02:20.194Z,70.70
2018-05-08T02:04:46.958Z,71.40
2018-05-08T02:07:13.740Z,71.50
2018-05-08T02:09:39.762Z,71.60
2018-05-08T02:12:05.769Z,71.90
2018-05-08T02:14:32.597Z,72.60
2018-05-08T02:16:58.615Z,72.60
2018-05-08T02:19:24.668Z,72.70
2018-05-08T02:21:50.683Z,73.70
2018-05-08T02:24:16.707Z,74.20
2018-05-08T02:26:42.717Z,74.90
2018-05-08T02:29:09.506Z,75.30
2018-05-08T02:31:35.517Z,75.40
2018-05-08T02:34:01.547Z,75.70
2018-05-08T02:36:27.564Z,76.40
2018-05-08T02:38:54.321Z,77.30
2018-05-08T02:41:21.105Z,77.70
2018-05-08T02:43:47.130Z,77.70
2018-05-08T02:46:13.147Z,78.30
2018-05-08T02:48:40.370Z,79.10
2018-05-08T02:51:06.386Z,79.10
2018-05-08T02:53:32.401Z,79.60
2018-05-08T02:55:58.444Z,79.90
2018-05-08T02:58:24.454Z,80.60
2018-05-08T03:00:51.218Z,81.10
2018-05-08T03:03:17.954Z,82.00
2018-05-08T03:05:43.946Z,82.00
2018-05-08T03:08:09.939Z,82.20
2018-05-08T03:10:36.686Z,83.20
2018-05-08T03:13:03.421Z,83.00
2018-05-08T03:15:29.453Z,83.00
2018-05-08T03:17:56.188Z,83.40
2018-05-08T03:20:22.189Z,83.40
2018-05-08T03:22:48.186Z,83.40
2018-05-08T03:25:14.925Z,84.10
2018-05-08T03:27:40.918Z,84.10
2018-05-08T03:30:06.917Z,84.70
2018-05-08T03:32:33.730Z,85.20
2018-05-08T03:34:59.746Z,85.20
2018-05-08T03:37:25.740Z,85.90
2018-05-08T03:39:52.477Z,86.40
2018-05-08T03:42:18.472Z,86.40
2018-05-08T03:44:44.473Z,86.50
2018-05-08T03:47:11.217Z,86.90
2018-05-08T03:49:37.957Z,87.30
2018-05-08T03:52:03.972Z,87.30
2018-05-08T03:54:29.996Z,87.60
2018-05-08T03:56:55.991Z,87.60
2018-05-08T03:59:22.735Z,88.00
2018-05-08T04:02:01.799Z,88.50
2018-05-08T04:04:40.297Z,88.40
2018-05-08T04:07:19.633Z,88.90
2018-05-08T04:09:45.639Z,89.00
2018-05-08T04:12:11.636Z,89.40
2018-05-08T04:14:38.374Z,90.10
2018-05-08T04:17:05.120Z,90.40
2018-05-08T04:19:31.877Z,90.50
2018-05-08T04:21:58.621Z,90.40
2018-05-08T04:24:24.626Z,90.30
2018-05-08T04:26:50.625Z,90.50
2018-05-08T04:29:16.609Z,90.10
2018-05-08T04:31:42.623Z,90.40
2018-05-08T04:34:08.613Z,90.10
2018-05-08T04:36:35.373Z,90.50
2018-05-08T04:39:02.114Z,90.40
2018-05-08T04:41:28.879Z,90.70
2018-05-08T04:43:55.627Z,90.70
2018-05-08T04:46:22.369Z,90.80
2018-05-08T04:48:48.353Z,90.80
2018-05-08T04:51:14.397Z,90.80
2018-05-08T04:53:40.386Z,91.00
2018-05-08T04:56:07.122Z,91.20
2018-05-08T04:58:33.109Z,90.90
2018-05-08T05:00:59.127Z,91.40
2018-05-08T05:03:25.150Z,91.80
2018-05-08T05:05:51.915Z,91.30
2018-05-08T05:08:17.931Z,91.30
2018-05-08T05:10:44.695Z,91.80
2018-05-08T05:13:11.460Z,91.60
2018-05-08T05:15:37.486Z,91.60
2018-05-08T05:18:04.281Z,90.70
2018-05-08T05:20:30.342Z,90.70
2018-05-08T05:22:56.374Z,91.40
2018-05-08T05:25:23.158Z,91.40
2018-05-08T05:27:49.924Z,91.40
2018-05-08T05:30:16.130Z,91.40
2018-05-08T05:32:42.157Z,91.20
2018-05-08T05:35:08.185Z,91.20
2018-05-08T05:37:34.246Z,91.10
2018-05-08T05:40:00.266Z,91.50
2018-05-08T05:42:26.297Z,91.30
2018-05-08T05:44:52.373Z,91.30
2018-05-08T05:47:19.146Z,91.10
2018-05-08T05:49:45.210Z,91.10
2018-05-08T05:52:11.237Z,91.60
2018-05-08T05:54:37.275Z,91.20
2018-05-08T05:57:03.297Z,90.30
2018-05-08T05:59:29.319Z,91.20
2018-05-08T06:01:55.334Z,91.10
2018-05-08T06:04:22.105Z,90.60
2018-05-08T06:06:48.877Z,91.10
2018-05-08T06:09:14.889Z,91.00
2018-05-08T06:11:41.710Z,90.70
2018-05-08T06:14:07.722Z,90.70
2018-05-08T06:16:33.794Z,90.40
2018-05-08T06:19:00.567Z,89.20
2018-05-08T06:21:27.333Z,89.60
2018-05-08T06:23:53.360Z,89.50
2018-05-08T06:26:20.126Z,89.10
2018-05-08T06:28:46.146Z,89.10
2018-05-08T06:31:12.287Z,88.50
2018-05-08T06:33:38.382Z,88.10
2018-05-08T06:36:04.422Z,87.30
2018-05-08T06:38:30.555Z,86.70
2018-05-08T06:40:56.694Z,86.00
2018-05-08T06:43:22.863Z,87.80
2018-05-08T06:45:49.634Z,85.80
2018-05-08T06:48:15.728Z,86.20
2018-05-08T06:50:41.853Z,85.10
2018-05-08T06:53:07.878Z,84.30
2018-05-08T06:55:33.894Z,82.20
2018-05-08T06:57:59.909Z,81.90
2018-05-08T07:00:25.923Z,77.80
2018-05-08T07:02:52.685Z,64.50
2018-05-08T07:05:19.428Z,59.00
2018-05-08T07:07:45.419Z,58.90
2018-05-08T07:10:11.454Z,58.20
2018-05-08T07:12:37.458Z,55.70
2018-05-08T07:15:03.450Z,54.10
2018-05-08T07:17:29.441Z,51.50
2018-05-08T07:19:55.432Z,53.80
2018-05-08T07:22:22.177Z,52.40
2018-05-08T07:24:48.169Z,52.20
2018-05-08T07:27:14.157Z,48.70
2018-05-08T07:29:40.151Z,48.80
2018-05-08T07:32:06.170Z,49.40
2018-05-08T07:34:32.631Z,49.20
2018-05-08T07:36:58.643Z,47.40
2018-05-08T07:39:24.639Z,46.40
2018-05-08T07:41:50.643Z,45.60
2018-05-08T07:44:16.635Z,47.70
2018-05-08T07:46:43.377Z,46.80
2018-05-08T07:49:10.110Z,45.80
2018-05-08T07:51:36.222Z,45.80
2018-05-08T07:54:02.233Z,46.50
2018-05-08T07:56:28.224Z,46.40
2018-05-08T07:58:54.237Z,45.20
2018-05-08T08:01:20.239Z,43.60
2018-05-08T08:03:46.242Z,42.70
2018-05-08T08:06:12.975Z,42.50
2018-05-08T08:08:38.974Z,42.50
2018-05-08T08:11:04.968Z,42.50
2018-05-08T08:13:31.709Z,40.60
2018-05-08T08:15:58.448Z,42.50
2018-05-08T08:18:24.445Z,42.50
2018-05-08T08:20:50.438Z,41.20
2018-05-08T08:23:17.194Z,42.40
2018-05-08T08:25:43.934Z,40.40
2018-05-08T08:28:09.938Z,40.40
2018-05-08T08:30:35.928Z,40.90
2018-05-08T08:33:02.669Z,40.40
2018-05-08T08:35:29.412Z,39.60
2018-05-08T08:37:56.153Z,39.80
2018-05-08T08:40:22.154Z,39.90
2018-05-08T08:42:48.154Z,38.10
2018-05-08T08:45:14.895Z,40.20
2018-05-08T08:47:41.739Z,37.00
2018-05-08T08:50:08.378Z,38.00
2018-05-08T08:52:34.380Z,38.00
2018-05-08T08:55:00.374Z,37.90
2018-05-08T08:57:27.117Z,38.20
2018-05-08T08:59:53.852Z,37.90
2018-05-08T09:02:19.853Z,37.80
2018-05-08T09:04:45.852Z,36.30
2018-05-08T09:07:12.581Z,37.20
2018-05-08T09:09:38.595Z,37.10
2018-05-08T09:12:04.599Z,36.90
2018-05-08T09:14:30.614Z,38.10
2018-05-08T09:16:56.600Z,36.50
2018-05-08T09:19:22.606Z,36.10
2018-05-08T09:21:48.598Z,37.70
2018-05-08T09:24:15.343Z,34.70
2018-05-08T09:26:42.100Z,36.00
2018-05-08T09:29:08.199Z,35.90
2018-05-08T09:31:34.203Z,35.20
2018-05-08T09:34:00.216Z,36.40
2018-05-08T09:36:26.958Z,35.90
2018-05-08T09:38:52.969Z,35.80
2018-05-08T09:41:18.977Z,35.90
2018-05-08T09:43:44.976Z,34.70
2018-05-08T09:46:11.713Z,35.40
2018-05-08T09:48:37.706Z,35.50
2018-05-08T09:51:03.720Z,35.80
2018-05-08T09:53:29.717Z,33.70
2018-05-08T09:55:55.762Z,34.80
2018-05-08T09:58:22.522Z,36.90
2018-05-08T10:00:49.347Z,35.00
2018-05-08T10:03:15.370Z,34.90
2018-05-08T10:05:41.364Z,33.60
2018-05-08T10:08:07.364Z,33.90
2018-05-08T10:10:33.365Z,34.00
2018-05-08T10:12:59.381Z,34.10
2018-05-08T10:15:25.365Z,34.30
2018-05-08T10:17:51.363Z,33.00
2018-05-08T10:20:17.365Z,33.40
2018-05-08T10:22:43.367Z,33.60
2018-05-08T10:25:09.466Z,32.00
2018-05-08T10:27:35.474Z,31.30
2018-05-08T10:30:01.491Z,30.80
2018-05-08T10:32:28.218Z,31.00
2018-05-08T10:34:54.219Z,30.90
2018-05-08T10:37:20.220Z,30.90
2018-05-08T10:39:46.257Z,31.50
2018-05-08T10:42:12.997Z,29.70
2018-05-08T10:44:39.738Z,31.10
2018-05-08T10:47:06.460Z,30.50
2018-05-08T10:49:32.455Z,30.60
2018-05-08T10:51:58.508Z,31.60
2018-05-08T10:54:24.509Z,31.90
2018-05-08T10:56:51.245Z,30.20
2018-05-08T10:59:17.262Z,30.30
2018-05-08T11:01:43.308Z,30.80
2018-05-08T11:04:09.353Z,29.70
2018-05-08T11:06:35.491Z,29.60
2018-05-08T11:09:01.551Z,30.80
2018-05-08T11:11:28.285Z,30.00
2018-05-08T11:13:54.282Z,30.00
2018-05-08T11:16:20.273Z,31.20
2018-05-08T11:18:46.354Z,31.70
2018-05-08T11:21:12.359Z,32.10
2018-05-08T11:23:38.387Z,31.90
2018-05-08T11:26:04.405Z,33.10
2018-05-08T11:28:31.144Z,31.30
2018-05-08T11:30:57.150Z,31.20
2018-05-08T11:33:23.173Z,32.10
2018-05-08T11:35:49.187Z,30.40
2018-05-08T11:38:15.194Z,30.90
2018-05-08T11:40:41.997Z,30.60
2018-05-08T11:43:08.019Z,30.60
2018-05-08T11:45:34.021Z,29.50
2018-05-08T11:48:00.752Z,31.30
2018-05-08T11:50:26.877Z,31.20
2018-05-08T11:52:52.868Z,28.60
2018-05-08T11:55:18.882Z,28.80
2018-05-08T11:57:45.662Z,31.60
2018-05-08T12:00:12.378Z,30.00
2018-05-08T12:02:39.156Z,30.90
2018-05-08T12:05:05.184Z,30.80
2018-05-08T12:07:31.208Z,32.10
2018-05-08T12:09:58.027Z,32.50
2018-05-08T12:12:24.045Z,32.50
2018-05-08T12:14:50.186Z,32.30
2018-05-08T12:17:16.113Z,31.90
2018-05-08T12:19:42.177Z,31.90
2018-05-08T12:22:08.211Z,31.50
2018-05-08T12:24:34.237Z,30.40
2018-05-08T12:27:00.258Z,31.40
2018-05-08T12:29:26.277Z,31.90
2018-05-08T12:31:52.337Z,31.30
2018-05-08T12:34:18.383Z,32.90
2018-05-08T12:36:44.406Z,30.00
2018-05-08T12:39:10.421Z,31.20
2018-05-08T12:41:36.471Z,30.30
2018-05-08T12:44:02.519Z,30.50
2018-05-08T12:46:28.533Z,32.50
2018-05-08T12:48:54.563Z,31.70
2018-05-08T12:51:20.637Z,31.10
2018-05-08T12:53:46.650Z,29.40
2018-05-08T12:56:12.711Z,30.40
2018-05-08T12:58:38.703Z,30.00
2018-05-08T13:01:04.717Z,29.70
2018-05-08T13:03:30.711Z,30.00
2018-05-08T13:05:56.705Z,29.40
2018-05-08T13:08:22.716Z,29.70
2018-05-08T13:10:49.506Z,30.00
2018-05-08T13:13:15.477Z,29.90
2018-05-08T13:15:41.465Z,30.60
2018-05-08T13:18:07.462Z,29.60
2018-05-08T13:20:34.201Z,28.90
2018-05-08T13:23:00.286Z,28.90
2018-05-08T13:25:26.282Z,30.10
2018-05-08T13:27:53.021Z,29.90
2018-05-08T13:30:19.014Z,29.90
2018-05-08T13:32:45.003Z,29.30
2018-05-08T13:35:11.017Z,29.50
2018-05-08T13:37:37.001Z,29.00
2018-05-08T13:40:03.008Z,27.80
2018-05-08T13:42:29.160Z,29.40
2018-05-08T13:44:55.923Z,30.00
2018-05-08T13:47:21.923Z,30.00
2018-05-08T13:49:47.913Z,29.40
2018-05-08T13:52:13.979Z,29.90
2018-05-08T13:54:39.973Z,29.40
2018-05-08T13:57:05.981Z,29.10
2018-05-08T13:59:32.077Z,28.70
2018-05-08T14:01:58.101Z,30.30
2018-05-08T14:04:24.107Z,28.20
2018-05-08T14:06:50.932Z,29.80
2018-05-08T14:09:16.919Z,29.80
2018-05-08T14:11:42.946Z,29.40
2018-05-08T14:14:08.949Z,30.40
2018-05-08T14:16:34.979Z,29.20
2018-05-08T14:19:00.989Z,28.00
2018-05-08T14:21:27.014Z,27.90
2018-05-08T14:23:53.026Z,28.30
2018-05-08T14:26:19.049Z,28.00
2018-05-08T14:28:45.130Z,29.10
2018-05-08T14:31:11.150Z,29.70
2018-05-08T14:33:37.153Z,29.20
2018-05-08T14:36:03.973Z,29.20
2018-05-08T14:38:30.030Z,29.20
2018-05-08T14:40:56.043Z,29.00
2018-05-08T14:43:22.072Z,29.40
2018-05-08T14:45:48.096Z,30.90
2018-05-08T14:48:14.145Z,29.70
2018-05-08T14:50:40.197Z,29.30
2018-05-08T14:53:06.234Z,28.90
2018-05-08T14:55:32.261Z,30.00
2018-05-08T14:57:58.281Z,28.80
2018-05-08T15:00:24.322Z,28.80
2018-05-08T15:02:50.324Z,29.30
2018-05-08T15:05:16.312Z,28.80
2018-05-08T15:07:42.309Z,29.40
2018-05-08T15:10:08.314Z,28.70
2018-05-08T15:12:34.314Z,29.50
2018-05-08T15:15:00.305Z,29.70
2018-05-08T15:17:26.314Z,29.50
2018-05-08T15:19:53.057Z,31.20
2018-05-08T15:22:19.810Z,29.60
2018-05-08T15:24:46.553Z,30.00
2018-05-08T15:27:12.553Z,30.00
2018-05-08T15:29:38.541Z,29.70
2018-05-08T15:32:05.286Z,29.80
2018-05-08T15:34:32.090Z,29.00
2018-05-08T15:36:58.081Z,28.90
2018-05-08T15:39:24.828Z,29.10
2018-05-08T15:41:51.575Z,28.70
2018-05-08T15:44:17.617Z,28.70
2018-05-08T15:46:44.353Z,29.40
2018-05-08T15:49:10.339Z,29.10
2018-05-08T15:51:36.398Z,28.90
2018-05-08T15:54:02.396Z,28.70
2018-05-08T15:56:28.389Z,28.90
2018-05-08T15:58:54.389Z,29.30
2018-05-08T16:01:20.394Z,29.30
2018-05-08T16:03:47.162Z,30.00
2018-05-08T16:06:13.186Z,30.00
2018-05-08T16:08:39.949Z,30.00
2018-05-08T16:11:05.985Z,30.00
2018-05-08T16:13:31.997Z,29.60
2018-05-08T16:15:58.753Z,30.20
2018-05-08T16:18:25.520Z,30.80
2018-05-08T16:20:51.549Z,30.70
2018-05-08T16:23:18.302Z,30.20
2018-05-08T16:25:45.048Z,31.20
2018-05-08T16:28:11.813Z,30.40
2018-05-08T16:30:37.907Z,30.40
2018-05-08T16:33:04.597Z,30.50
2018-05-08T16:35:31.351Z,30.00
2018-05-08T16:37:57.382Z,29.90
2018-05-08T16:40:24.146Z,29.80
2018-05-08T16:42:50.172Z,30.30
2018-05-08T16:45:16.954Z,30.60
2018-05-08T16:47:42.982Z,30.60
2018-05-08T16:50:09.021Z,30.00
2018-05-08T16:52:35.047Z,30.60
2018-05-08T16:55:01.065Z,30.00
2018-05-08T16:57:27.845Z,30.50
2018-05-08T16:59:53.856Z,30.40
2018-05-08T17:02:20.661Z,30.70
2018-05-08T17:04:46.679Z,30.70
2018-05-08T17:07:12.672Z,31.30
2018-05-08T17:09:39.470Z,31.70
2018-05-08T17:12:05.893Z,31.60
2018-05-08T17:14:32.428Z,32.30
2018-05-08T17:16:58.904Z,31.80
2018-05-08T17:19:25.336Z,32.80
2018-05-08T17:21:51.658Z,33.10
2018-05-08T17:24:17.900Z,33.80
2018-05-08T17:26:44.190Z,34.40
2018-05-08T17:29:11.769Z,34.60
2018-05-08T17:31:38.092Z,35.50
2018-05-08T17:34:04.604Z,36.50
2018-05-08T17:36:30.946Z,35.20
2018-05-08T17:38:56.982Z,35.50
2018-05-08T17:41:23.783Z,35.60
2018-05-08T17:43:49.815Z,35.50
2018-05-08T17:46:15.815Z,35.90
2018-05-08T17:48:41.815Z,36.70
2018-05-08T17:51:09.299Z,37.40
2018-05-08T17:53:36.054Z,38.60
2018-05-08T17:56:02.789Z,38.70
2018-05-08T17:58:28.789Z,38.60
2018-05-08T18:00:54.778Z,39.00
2018-05-08T18:03:21.574Z,40.00
2018-05-08T18:05:47.565Z,40.00
2018-05-08T18:08:14.302Z,39.30
2018-05-08T18:10:40.303Z,39.30
2018-05-08T18:13:06.298Z,40.20
2018-05-08T18:15:32.311Z,40.00
2018-05-08T18:17:58.310Z,41.20
2018-05-08T18:20:24.305Z,41.80
2018-05-08T18:22:50.304Z,41.60
2018-05-08T18:25:17.789Z,41.50
2018-05-08T18:27:44.547Z,41.40
2018-05-08T18:30:11.291Z,42.00
2018-05-08T18:32:38.033Z,42.20
2018-05-08T18:35:04.040Z,42.10
2018-05-08T18:37:30.042Z,42.00
2018-05-08T18:39:56.045Z,42.90
2018-05-08T18:42:22.030Z,42.90
2018-05-08T18:44:48.027Z,43.10
2018-05-08T18:47:14.766Z,43.80
2018-05-08T18:49:40.831Z,43.80
2018-05-08T18:52:06.781Z,43.80
2018-05-08T18:54:32.835Z,44.30
2018-05-08T18:56:58.859Z,44.40
2018-05-08T18:59:24.870Z,44.70
2018-05-08T19:01:50.865Z,44.80
2018-05-08T19:04:17.003Z,45.00
2018-05-08T19:06:43.015Z,45.50
2018-05-08T19:09:09.013Z,46.20
2018-05-08T19:11:41.127Z,45.70
2018-05-08T19:14:07.131Z,46.30
2018-05-08T19:16:33.125Z,46.30
2018-05-08T19:19:05.101Z,46.50
2018-05-08T19:21:31.125Z,46.90
2018-05-08T19:24:03.262Z,46.70
2018-05-08T19:26:29.327Z,46.80
2018-05-08T19:29:01.298Z,47.30
2018-05-08T19:31:27.303Z,47.20
2018-05-08T19:33:53.325Z,47.60
2018-05-08T19:36:26.189Z,48.00
2018-05-08T19:38:52.210Z,47.90
2018-05-08T19:41:18.215Z,48.10
2018-05-08T19:43:44.228Z,48.60
2018-05-08T19:46:11.326Z,49.00
2018-05-08T19:48:37.326Z,48.90
2018-05-08T19:51:04.074Z,49.20
2018-05-08T19:53:30.810Z,49.20
2018-05-08T19:55:57.597Z,49.20
2018-05-08T19:58:23.590Z,49.60
2018-05-08T20:00:49.599Z,49.70
2018-05-08T20:03:15.614Z,49.90
2018-05-08T20:05:41.784Z,49.70
2018-05-08T20:08:07.846Z,50.10
2018-05-08T20:10:33.876Z,50.40
2018-05-08T20:13:00.657Z,50.70
2018-05-08T20:15:26.800Z,50.70
2018-05-08T20:17:52.785Z,50.80
2018-05-08T20:20:19.002Z,50.80
2018-05-08T20:22:44.941Z,51.00
2018-05-08T20:25:11.141Z,51.10
2018-05-08T20:27:37.906Z,51.20
2018-05-08T20:30:03.974Z,51.20
2018-05-08T20:32:30.009Z,51.50
2018-05-08T20:34:56.193Z,51.60
2018-05-08T20:37:23.046Z,52.00
2018-05-08T20:39:50.047Z,51.80
2018-05-08T20:42:16.070Z,51.80
2018-05-08T20:44:42.314Z,52.00
2018-05-08T20:47:08.499Z,52.00
2018-05-08T20:49:34.551Z,52.30
2018-05-08T20:52:01.315Z,53.00
2018-05-08T20:54:28.073Z,52.70
2018-05-08T20:56:54.854Z,53.10
2018-05-08T20:59:21.088Z,53.10
2018-05-08T21:01:47.106Z,53.20
2018-05-08T21:04:13.217Z,53.40
2018-05-08T21:06:39.257Z,53.70
2018-05-08T21:09:05.317Z,53.80
2018-05-08T21:11:31.511Z,54.60
2018-05-08T21:13:57.650Z,54.30
2018-05-08T21:16:23.694Z,54.20
2018-05-08T21:18:49.707Z,54.20
2018-05-08T21:21:15.725Z,54.10
2018-05-08T21:23:41.733Z,54.00
2018-05-08T21:26:08.495Z,54.10
2018-05-08T21:28:40.584Z,54.10
2018-05-08T21:31:12.698Z,54.50
2018-05-08T21:33:38.843Z,54.80
2018-05-08T21:36:04.863Z,54.70
2018-05-08T21:38:30.877Z,54.80
2018-05-08T21:40:56.898Z,55.60
2018-05-08T21:43:22.920Z,55.50
2018-05-08T21:45:49.683Z,55.60
2018-05-08T21:48:15.706Z,55.60
2018-05-08T21:50:42.473Z,56.00
2018-05-08T21:53:08.498Z,56.10
2018-05-08T21:55:35.248Z,56.20
2018-05-08T21:58:02.010Z,55.90
2018-05-08T22:00:28.041Z,55.90
2018-05-08T22:02:54.113Z,56.10
2018-05-08T22:05:20.102Z,56.20
2018-05-08T22:07:46.845Z,56.40
2018-05-08T22:10:13.586Z,57.00
2018-05-08T22:12:39.581Z,56.60
2018-05-08T22:15:05.586Z,56.60
2018-05-08T22:17:31.586Z,57.00
2018-05-08T22:19:57.580Z,56.60
2018-05-08T22:22:23.577Z,57.00
2018-05-08T22:24:50.384Z,57.60
2018-05-08T22:27:16.383Z,57.50
2018-05-08T22:29:42.385Z,57.80
2018-05-08T22:32:09.135Z,58.20
2018-05-08T22:34:35.133Z,58.10
2018-05-08T22:37:01.121Z,58.20
2018-05-08T22:39:27.853Z,58.40
2018-05-08T22:41:53.849Z,58.40
2018-05-08T22:44:19.853Z,59.50
2018-05-08T22:46:45.853Z,59.00
2018-05-08T22:49:11.853Z,59.30
2018-05-08T22:51:37.866Z,59.50
2018-05-08T22:54:03.866Z,59.50
2018-05-08T22:56:29.869Z,60.10
2018-05-08T22:58:55.909Z,60.20
2018-05-08T23:01:21.904Z,60.50
2018-05-08T23:03:47.930Z,61.40
2018-05-08T23:06:14.690Z,61.90
2018-05-08T23:08:40.710Z,61.90
2018-05-08T23:11:07.465Z,63.40
2018-05-08T23:13:34.229Z,63.90
2018-05-08T23:16:00.235Z,64.00
2018-05-08T23:18:26.249Z,64.20
2018-05-08T23:20:52.265Z,64.60
2018-05-08T23:23:18.282Z,65.50
2018-05-08T23:25:44.301Z,66.50
2018-05-08T23:28:11.056Z,68.00
2018-05-08T23:30:37.074Z,68.00
2018-05-08T23:33:03.935Z,69.40
2018-05-08T23:35:30.714Z,70.00
2018-05-08T23:37:56.757Z,70.00
2018-05-08T23:40:22.781Z,70.50
2018-05-08T23:42:48.798Z,70.50
2018-05-08T23:45:15.565Z,71.80
2018-05-08T23:47:41.599Z,71.70
2018-05-08T23:50:07.614Z,72.60
2018-05-08T23:52:34.375Z,74.10
2018-05-08T23:55:01.137Z,75.30
2018-05-08T23:57:27.158Z,75.30
2018-05-08T23:59:53.923Z,77.00
